sensor_id;sensor_type;location;lat;lon;timestamp;pressure;altitude;pressure_sealevel;temperature;humidity
43147;BME280;28752;48.266;7.402;2022-12-24T00:01:07;99049.69;;;12.10;77.89
43147;BME280;28752;48.266;7.402;2022-12-24T00:03:33;99058.13;;;12.22;76.75
43147;BME280;28752;48.266;7.402;2022-12-24T00:05:58;99052.50;;;12.25;77.49
43147;BME280;28752;48.266;7.402;2022-12-24T00:08:27;99044.22;;;12.20;76.58
43147;BME280;28752;48.266;7.402;2022-12-24T00:10:53;99053.34;;;12.25;75.16
43147;BME280;28752;48.266;7.402;2022-12-24T00:13:19;99064.47;;;12.21;75.53
43147;BME280;28752;48.266;7.402;2022-12-24T00:15:45;99063.13;;;12.25;75.48
43147;BME280;28752;48.266;7.402;2022-12-24T00:18:10;99048.38;;;12.22;74.51
43147;BME280;28752;48.266;7.402;2022-12-24T00:20:35;99063.13;;;12.33;73.35
43147;BME280;28752;48.266;7.402;2022-12-24T00:23:01;99084.88;;;12.29;74.93
43147;BME280;28752;48.266;7.402;2022-12-24T00:25:26;99071.94;;;12.25;75.47
43147;BME280;28752;48.266;7.402;2022-12-24T00:27:51;99071.25;;;12.40;75.13
43147;BME280;28752;48.266;7.402;2022-12-24T00:30:17;99053.34;;;12.34;73.66
43147;BME280;28752;48.266;7.402;2022-12-24T00:32:42;99082.53;;;12.34;73.44
43147;BME280;28752;48.266;7.402;2022-12-24T00:35:08;99103.59;;;12.35;74.46
43147;BME280;28752;48.266;7.402;2022-12-24T00:37:33;99094.97;;;12.33;75.27
43147;BME280;28752;48.266;7.402;2022-12-24T00:39:58;99092.31;;;12.41;75.17
43147;BME280;28752;48.266;7.402;2022-12-24T00:42:24;99095.16;;;12.32;76.32
43147;BME280;28752;48.266;7.402;2022-12-24T00:44:49;99103.13;;;12.32;76.07
43147;BME280;28752;48.266;7.402;2022-12-24T00:47:14;99117.88;;;12.42;74.65
43147;BME280;28752;48.266;7.402;2022-12-24T00:49:40;99119.88;;;12.40;75.58
43147;BME280;28752;48.266;7.402;2022-12-24T00:52:05;99120.53;;;12.42;75.13
43147;BME280;28752;48.266;7.402;2022-12-24T00:54:30;99107.44;;;12.41;76.03
43147;BME280;28752;48.266;7.402;2022-12-24T00:56:56;99118.88;;;12.33;76.57
43147;BME280;28752;48.266;7.402;2022-12-24T00:59:21;99109.56;;;12.29;76.70
43147;BME280;28752;48.266;7.402;2022-12-24T01:01:46;99120.19;;;12.37;74.78
43147;BME280;28752;48.266;7.402;2022-12-24T01:04:12;99115.38;;;12.24;74.56
43147;BME280;28752;48.266;7.402;2022-12-24T01:06:56;99112.03;;;12.14;75.80
43147;BME280;28752;48.266;7.402;2022-12-24T01:09:21;99108.25;;;12.17;73.81
43147;BME280;28752;48.266;7.402;2022-12-24T01:11:47;99117.72;;;12.19;74.28
43147;BME280;28752;48.266;7.402;2022-12-24T01:14:12;99127.44;;;12.02;74.97
43147;BME280;28752;48.266;7.402;2022-12-24T01:16:37;99125.16;;;12.07;73.89
43147;BME280;28752;48.266;7.402;2022-12-24T01:19:03;99126.28;;;12.05;74.52
43147;BME280;28752;48.266;7.402;2022-12-24T01:21:28;99121.34;;;12.10;74.13
43147;BME280;28752;48.266;7.402;2022-12-24T01:23:54;99139.59;;;12.13;73.18
43147;BME280;28752;48.266;7.402;2022-12-24T01:26:19;99133.22;;;11.98;72.92
43147;BME280;28752;48.266;7.402;2022-12-24T01:28:44;99137.22;;;12.02;72.50
43147;BME280;28752;48.266;7.402;2022-12-24T01:31:15;99140.13;;;11.82;74.08
43147;BME280;28752;48.266;7.402;2022-12-24T01:33:41;99125.44;;;11.96;73.13
43147;BME280;28752;48.266;7.402;2022-12-24T01:36:07;99112.28;;;11.86;72.98
43147;BME280;28752;48.266;7.402;2022-12-24T01:38:33;99123.72;;;11.87;72.30
43147;BME280;28752;48.266;7.402;2022-12-24T01:40:58;99124.06;;;11.84;71.88
43147;BME280;28752;48.266;7.402;2022-12-24T01:43:42;99147.03;;;12.01;72.37
43147;BME280;28752;48.266;7.402;2022-12-24T01:46:13;99152.66;;;11.98;72.47
43147;BME280;28752;48.266;7.402;2022-12-24T01:49:00;99166.00;;;11.88;72.90
43147;BME280;28752;48.266;7.402;2022-12-24T01:51:33;99152.59;;;11.90;73.43
43147;BME280;28752;48.266;7.402;2022-12-24T01:54:03;99176.16;;;11.93;73.52
43147;BME280;28752;48.266;7.402;2022-12-24T01:56:31;99166.69;;;11.90;72.81
43147;BME280;28752;48.266;7.402;2022-12-24T01:59:01;99175.78;;;11.80;73.79
43147;BME280;28752;48.266;7.402;2022-12-24T02:01:27;99172.81;;;11.83;73.96
43147;BME280;28752;48.266;7.402;2022-12-24T02:03:52;99179.97;;;11.90;73.78
43147;BME280;28752;48.266;7.402;2022-12-24T02:06:19;99173.16;;;11.88;73.79
43147;BME280;28752;48.266;7.402;2022-12-24T02:08:46;99181.47;;;11.93;73.80
43147;BME280;28752;48.266;7.402;2022-12-24T02:11:16;99182.63;;;11.90;74.06
43147;BME280;28752;48.266;7.402;2022-12-24T02:13:45;99185.97;;;11.93;74.52
43147;BME280;28752;48.266;7.402;2022-12-24T02:21:47;99200.25;;;12.00;72.14
43147;BME280;28752;48.266;7.402;2022-12-24T02:24:34;99209.03;;;12.00;72.06
43147;BME280;28752;48.266;7.402;2022-12-24T02:27:18;99207.56;;;12.06;71.15
43147;BME280;28752;48.266;7.402;2022-12-24T02:29:58;99194.13;;;12.07;70.70
43147;BME280;28752;48.266;7.402;2022-12-24T02:34:57;99224.00;;;12.09;71.53
43147;BME280;28752;48.266;7.402;2022-12-24T02:37:29;99223.28;;;11.99;71.17
43147;BME280;28752;48.266;7.402;2022-12-24T02:40:03;99216.81;;;11.94;71.05
43147;BME280;28752;48.266;7.402;2022-12-24T02:42:36;99217.75;;;11.84;71.96
43147;BME280;28752;48.266;7.402;2022-12-24T02:45:15;99220.44;;;11.93;71.66
43147;BME280;28752;48.266;7.402;2022-12-24T02:47:43;99233.25;;;11.97;70.81
43147;BME280;28752;48.266;7.402;2022-12-24T02:50:11;99232.09;;;12.00;70.42
43147;BME280;28752;48.266;7.402;2022-12-24T02:52:43;99215.16;;;11.93;69.51
43147;BME280;28752;48.266;7.402;2022-12-24T02:56:04;99243.06;;;12.05;69.77
43147;BME280;28752;48.266;7.402;2022-12-24T03:01:16;99247.22;;;12.16;68.87
43147;BME280;28752;48.266;7.402;2022-12-24T03:09:20;99260.81;;;12.13;69.81
43147;BME280;28752;48.266;7.402;2022-12-24T03:12:57;99244.41;;;12.17;69.02
43147;BME280;28752;48.266;7.402;2022-12-24T03:14:50;99234.66;;;12.18;68.03
43147;BME280;28752;48.266;7.402;2022-12-24T03:17:17;99238.78;;;12.20;67.76
43147;BME280;28752;48.266;7.402;2022-12-24T03:19:44;99253.06;;;12.19;67.31
43147;BME280;28752;48.266;7.402;2022-12-24T03:22:11;99263.69;;;12.19;67.80
43147;BME280;28752;48.266;7.402;2022-12-24T03:24:37;99258.22;;;12.21;68.03
43147;BME280;28752;48.266;7.402;2022-12-24T03:27:05;99269.66;;;12.30;67.81
43147;BME280;28752;48.266;7.402;2022-12-24T03:29:32;99284.94;;;12.27;67.68
43147;BME280;28752;48.266;7.402;2022-12-24T03:32:00;99245.78;;;12.21;67.38
43147;BME280;28752;48.266;7.402;2022-12-24T03:34:26;99257.03;;;12.23;68.17
43147;BME280;28752;48.266;7.402;2022-12-24T03:36:51;99255.56;;;12.21;68.09
43147;BME280;28752;48.266;7.402;2022-12-24T03:39:17;99247.75;;;12.19;67.93
43147;BME280;28752;48.266;7.402;2022-12-24T03:41:42;99265.16;;;12.14;68.85
43147;BME280;28752;48.266;7.402;2022-12-24T03:44:08;99239.81;;;12.19;66.86
43147;BME280;28752;48.266;7.402;2022-12-24T03:46:33;99255.88;;;12.18;68.12
43147;BME280;28752;48.266;7.402;2022-12-24T03:48:58;99271.75;;;12.09;68.65
43147;BME280;28752;48.266;7.402;2022-12-24T03:51:24;99269.03;;;11.93;69.03
43147;BME280;28752;48.266;7.402;2022-12-24T03:53:56;99285.66;;;12.03;68.45
43147;BME280;28752;48.266;7.402;2022-12-24T03:56:22;99275.19;;;11.94;69.12
43147;BME280;28752;48.266;7.402;2022-12-24T03:58:48;99265.06;;;11.97;70.20
43147;BME280;28752;48.266;7.402;2022-12-24T04:01:15;99272.22;;;11.97;69.64
43147;BME280;28752;48.266;7.402;2022-12-24T04:03:41;99261.69;;;11.87;70.01
43147;BME280;28752;48.266;7.402;2022-12-24T04:06:09;99279.09;;;11.89;71.22
43147;BME280;28752;48.266;7.402;2022-12-24T04:08:35;99289.72;;;11.89;70.85
43147;BME280;28752;48.266;7.402;2022-12-24T04:11:00;99272.19;;;11.70;71.24
43147;BME280;28752;48.266;7.402;2022-12-24T04:13:27;99278.22;;;11.81;71.63
43147;BME280;28752;48.266;7.402;2022-12-24T04:16:02;99284.88;;;11.85;72.03
43147;BME280;28752;48.266;7.402;2022-12-24T04:18:28;99266.66;;;11.90;71.87
43147;BME280;28752;48.266;7.402;2022-12-24T04:20:54;99280.50;;;11.94;71.82
43147;BME280;28752;48.266;7.402;2022-12-24T04:23:19;99273.78;;;11.81;71.85
43147;BME280;28752;48.266;7.402;2022-12-24T04:25:45;99303.66;;;11.91;72.04
43147;BME280;28752;48.266;7.402;2022-12-24T04:28:11;99314.06;;;11.85;72.06
43147;BME280;28752;48.266;7.402;2022-12-24T04:30:38;99312.56;;;11.82;72.03
43147;BME280;28752;48.266;7.402;2022-12-24T04:33:03;99311.16;;;11.70;71.86
43147;BME280;28752;48.266;7.402;2022-12-24T04:35:29;99298.63;;;11.80;71.33
43147;BME280;28752;48.266;7.402;2022-12-24T04:37:54;99311.63;;;11.65;72.50
43147;BME280;28752;48.266;7.402;2022-12-24T04:40:19;99312.13;;;11.69;71.91
43147;BME280;28752;48.266;7.402;2022-12-24T04:42:45;99312.50;;;11.74;71.97
43147;BME280;28752;48.266;7.402;2022-12-24T04:45:10;99322.84;;;11.59;72.63
43147;BME280;28752;48.266;7.402;2022-12-24T04:47:35;99326.78;;;11.55;73.03
43147;BME280;28752;48.266;7.402;2022-12-24T04:50:01;99321.88;;;11.60;72.74
43147;BME280;28752;48.266;7.402;2022-12-24T04:52:27;99321.94;;;11.50;73.16
43147;BME280;28752;48.266;7.402;2022-12-24T04:54:52;99337.34;;;11.47;73.77
43147;BME280;28752;48.266;7.402;2022-12-24T04:57:18;99317.81;;;11.48;73.85
43147;BME280;28752;48.266;7.402;2022-12-24T04:59:43;99310.59;;;11.40;74.05
43147;BME280;28752;48.266;7.402;2022-12-24T05:02:08;99302.44;;;11.33;74.15
43147;BME280;28752;48.266;7.402;2022-12-24T05:04:34;99308.53;;;11.26;74.43
43147;BME280;28752;48.266;7.402;2022-12-24T05:06:59;99341.59;;;11.40;73.75
43147;BME280;28752;48.266;7.402;2022-12-24T05:09:25;99336.38;;;11.30;73.59
43147;BME280;28752;48.266;7.402;2022-12-24T05:11:50;99329.34;;;11.20;74.28
43147;BME280;28752;48.266;7.402;2022-12-24T05:14:15;99334.72;;;11.29;72.71
43147;BME280;28752;48.266;7.402;2022-12-24T05:16:41;99339.31;;;11.45;71.95
43147;BME280;28752;48.266;7.402;2022-12-24T05:19:08;99339.75;;;11.40;72.02
43147;BME280;28752;48.266;7.402;2022-12-24T05:21:33;99336.66;;;11.45;71.92
43147;BME280;28752;48.266;7.402;2022-12-24T05:23:58;99353.56;;;11.44;72.07
43147;BME280;28752;48.266;7.402;2022-12-24T05:26:48;99355.66;;;11.40;73.09
43147;BME280;28752;48.266;7.402;2022-12-24T05:29:14;99363.63;;;11.40;73.01
43147;BME280;28752;48.266;7.402;2022-12-24T05:31:41;99363.31;;;11.43;73.40
43147;BME280;28752;48.266;7.402;2022-12-24T05:34:07;99348.47;;;11.50;73.43
43147;BME280;28752;48.266;7.402;2022-12-24T05:36:33;99324.41;;;11.26;73.38
43147;BME280;28752;48.266;7.402;2022-12-24T05:38:59;99322.38;;;11.37;74.19
43147;BME280;28752;48.266;7.402;2022-12-24T05:41:25;99323.28;;;11.28;73.79
43147;BME280;28752;48.266;7.402;2022-12-24T05:43:50;99334.09;;;11.35;74.26
43147;BME280;28752;48.266;7.402;2022-12-24T05:46:19;99347.25;;;11.45;73.50
43147;BME280;28752;48.266;7.402;2022-12-24T05:48:46;99336.72;;;11.53;70.81
43147;BME280;28752;48.266;7.402;2022-12-24T05:51:11;99344.53;;;11.54;70.79
43147;BME280;28752;48.266;7.402;2022-12-24T05:53:37;99336.72;;;11.53;71.14
43147;BME280;28752;48.266;7.402;2022-12-24T05:56:13;99354.00;;;11.57;70.74
43147;BME280;28752;48.266;7.402;2022-12-24T05:58:40;99351.13;;;11.50;71.14
43147;BME280;28752;48.266;7.402;2022-12-24T06:01:06;99347.69;;;11.58;71.22
43147;BME280;28752;48.266;7.402;2022-12-24T06:03:33;99323.53;;;11.43;72.33
43147;BME280;28752;48.266;7.402;2022-12-24T06:06:05;99337.66;;;11.44;72.54
43147;BME280;28752;48.266;7.402;2022-12-24T06:08:32;99338.56;;;11.52;71.08
43147;BME280;28752;48.266;7.402;2022-12-24T06:10:58;99362.72;;;11.49;71.25
43147;BME280;28752;48.266;7.402;2022-12-24T06:13:24;99354.06;;;11.47;71.10
43147;BME280;28752;48.266;7.402;2022-12-24T06:15:50;99359.53;;;11.46;71.29
43147;BME280;28752;48.266;7.402;2022-12-24T06:18:18;99360.44;;;11.54;71.82
43147;BME280;28752;48.266;7.402;2022-12-24T06:20:43;99346.81;;;11.49;71.76
43147;BME280;28752;48.266;7.402;2022-12-24T06:23:08;99354.16;;;11.55;71.85
43147;BME280;28752;48.266;7.402;2022-12-24T06:25:34;99376.09;;;11.66;71.00
43147;BME280;28752;48.266;7.402;2022-12-24T06:27:59;99372.09;;;11.62;71.08
43147;BME280;28752;48.266;7.402;2022-12-24T06:30:24;99368.28;;;11.64;70.96
43147;BME280;28752;48.266;7.402;2022-12-24T06:32:50;99353.41;;;11.45;69.57
43147;BME280;28752;48.266;7.402;2022-12-24T06:35:15;99345.31;;;11.47;68.72
43147;BME280;28752;48.266;7.402;2022-12-24T06:37:41;99343.41;;;11.57;69.22
43147;BME280;28752;48.266;7.402;2022-12-24T06:40:07;99341.72;;;11.56;68.96
43147;BME280;28752;48.266;7.402;2022-12-24T06:42:32;99352.41;;;11.46;69.62
43147;BME280;28752;48.266;7.402;2022-12-24T06:44:57;99335.03;;;11.26;70.61
43147;BME280;28752;48.266;7.402;2022-12-24T06:47:23;99348.19;;;11.35;69.85
43147;BME280;28752;48.266;7.402;2022-12-24T06:49:48;99356.13;;;11.35;69.26
43147;BME280;28752;48.266;7.402;2022-12-24T06:52:13;99357.03;;;11.26;69.78
43147;BME280;28752;48.266;7.402;2022-12-24T06:54:39;99355.84;;;11.20;70.34
43147;BME280;28752;48.266;7.402;2022-12-24T06:57:04;99366.53;;;11.29;70.03
43147;BME280;28752;48.266;7.402;2022-12-24T06:59:31;99363.88;;;11.29;70.03
43147;BME280;28752;48.266;7.402;2022-12-24T07:01:56;99369.53;;;11.34;69.90
43147;BME280;28752;48.266;7.402;2022-12-24T07:04:22;99375.16;;;11.31;70.20
43147;BME280;28752;48.266;7.402;2022-12-24T07:06:47;99373.81;;;11.27;70.00
43147;BME280;28752;48.266;7.402;2022-12-24T07:09:13;99366.66;;;11.09;70.13
43147;BME280;28752;48.266;7.402;2022-12-24T07:11:39;99378.50;;;11.15;70.29
43147;BME280;28752;48.266;7.402;2022-12-24T07:14:05;99378.19;;;11.18;70.78
43147;BME280;28752;48.266;7.402;2022-12-24T07:16:30;99375.28;;;11.11;71.07
43147;BME280;28752;48.266;7.402;2022-12-24T07:18:56;99378.41;;;11.25;69.78
43147;BME280;28752;48.266;7.402;2022-12-24T07:21:21;99368.25;;;11.20;69.49
43147;BME280;28752;48.266;7.402;2022-12-24T07:23:46;99378.41;;;11.25;69.60
43147;BME280;28752;48.266;7.402;2022-12-24T07:26:12;99360.56;;;11.27;69.09
43147;BME280;28752;48.266;7.402;2022-12-24T07:28:37;99390.44;;;11.55;68.90
43147;BME280;28752;48.266;7.402;2022-12-24T07:31:02;99393.22;;;11.71;68.29
43147;BME280;28752;48.266;7.402;2022-12-24T07:33:28;99410.19;;;11.79;68.17
43147;BME280;28752;48.266;7.402;2022-12-24T07:36:05;99419.75;;;11.71;68.64
43147;BME280;28752;48.266;7.402;2022-12-24T07:38:31;99419.97;;;11.78;68.19
43147;BME280;28752;48.266;7.402;2022-12-24T07:40:57;99414.69;;;11.78;68.28
43147;BME280;28752;48.266;7.402;2022-12-24T07:43:24;99415.97;;;11.74;68.40
43147;BME280;28752;48.266;7.402;2022-12-24T07:45:49;99425.94;;;11.80;68.43
43147;BME280;28752;48.266;7.402;2022-12-24T07:48:15;99431.78;;;11.84;69.10
43147;BME280;28752;48.266;7.402;2022-12-24T07:50:41;99434.97;;;11.87;68.97
43147;BME280;28752;48.266;7.402;2022-12-24T07:53:07;99418.31;;;11.95;67.97
43147;BME280;28752;48.266;7.402;2022-12-24T07:55:32;99427.41;;;11.93;68.27
43147;BME280;28752;48.266;7.402;2022-12-24T07:57:57;99420.09;;;11.95;68.03
43147;BME280;28752;48.266;7.402;2022-12-24T08:00:23;99429.19;;;11.92;67.40
43147;BME280;28752;48.266;7.402;2022-12-24T08:02:48;99459.38;;;12.09;68.05
43147;BME280;28752;48.266;7.402;2022-12-24T08:05:13;99461.63;;;12.04;68.23
43147;BME280;28752;48.266;7.402;2022-12-24T08:07:39;99459.59;;;11.98;69.86
43147;BME280;28752;48.266;7.402;2022-12-24T08:10:05;99462.56;;;11.95;70.47
43147;BME280;28752;48.266;7.402;2022-12-24T08:12:30;99440.13;;;11.71;75.70
43147;BME280;28752;48.266;7.402;2022-12-24T08:14:56;99462.78;;;11.65;78.79
43147;BME280;28752;48.266;7.402;2022-12-24T08:17:21;99466.72;;;11.43;79.17
43147;BME280;28752;48.266;7.402;2022-12-24T08:19:47;99471.88;;;11.27;82.95
43147;BME280;28752;48.266;7.402;2022-12-24T08:22:12;99474.22;;;11.02;86.90
43147;BME280;28752;48.266;7.402;2022-12-24T08:24:37;99471.63;;;10.92;88.70
43147;BME280;28752;48.266;7.402;2022-12-24T08:27:03;99466.50;;;10.81;89.28
43147;BME280;28752;48.266;7.402;2022-12-24T08:29:28;99464.34;;;10.66;91.15
43147;BME280;28752;48.266;7.402;2022-12-24T08:31:53;99458.84;;;10.50;92.20
43147;BME280;28752;48.266;7.402;2022-12-24T08:34:19;99460.38;;;10.53;92.84
43147;BME280;28752;48.266;7.402;2022-12-24T08:36:44;99450.38;;;10.46;92.92
43147;BME280;28752;48.266;7.402;2022-12-24T08:39:09;99451.88;;;10.49;93.44
43147;BME280;28752;48.266;7.402;2022-12-24T08:41:35;99458.41;;;10.55;93.70
43147;BME280;28752;48.266;7.402;2022-12-24T08:44:01;99436.41;;;10.44;91.27
43147;BME280;28752;48.266;7.402;2022-12-24T08:46:26;99457.59;;;10.54;88.01
43147;BME280;28752;48.266;7.402;2022-12-24T08:48:51;99470.91;;;10.72;87.28
43147;BME280;28752;48.266;7.402;2022-12-24T08:51:17;99471.50;;;10.84;84.76
43147;BME280;28752;48.266;7.402;2022-12-24T08:53:44;99479.81;;;10.99;84.71
43147;BME280;28752;48.266;7.402;2022-12-24T08:56:09;99481.19;;;11.03;84.90
43147;BME280;28752;48.266;7.402;2022-12-24T08:58:35;99474.84;;;11.14;84.77
43147;BME280;28752;48.266;7.402;2022-12-24T09:01:08;99478.34;;;11.14;86.10
43147;BME280;28752;48.266;7.402;2022-12-24T09:03:33;99482.59;;;11.07;86.03
43147;BME280;28752;48.266;7.402;2022-12-24T09:06:02;99466.09;;;11.13;84.95
43147;BME280;28752;48.266;7.402;2022-12-24T09:08:27;99464.69;;;11.09;84.94
43147;BME280;28752;48.266;7.402;2022-12-24T09:10:53;99476.91;;;11.20;83.92
43147;BME280;28752;48.266;7.402;2022-12-24T09:13:18;99475.03;;;11.30;85.21
43147;BME280;28752;48.266;7.402;2022-12-24T09:15:54;99479.06;;;11.34;85.10
43147;BME280;28752;48.266;7.402;2022-12-24T09:18:19;99476.66;;;11.41;84.48
43147;BME280;28752;48.266;7.402;2022-12-24T09:20:45;99490.53;;;11.53;83.58
43147;BME280;28752;48.266;7.402;2022-12-24T09:23:10;99496.03;;;11.60;83.59
43147;BME280;28752;48.266;7.402;2022-12-24T09:25:40;99488.09;;;11.60;84.21
43147;BME280;28752;48.266;7.402;2022-12-24T09:28:05;99486.06;;;11.71;82.66
43147;BME280;28752;48.266;7.402;2022-12-24T09:30:31;99485.28;;;11.79;81.57
43147;BME280;28752;48.266;7.402;2022-12-24T09:32:56;99496.28;;;11.84;83.92
43147;BME280;28752;48.266;7.402;2022-12-24T09:35:22;99498.66;;;11.87;82.63
43147;BME280;28752;48.266;7.402;2022-12-24T09:37:47;99510.31;;;11.95;81.88
43147;BME280;28752;48.266;7.402;2022-12-24T09:40:24;99506.06;;;12.02;81.57
43147;BME280;28752;48.266;7.402;2022-12-24T09:42:53;99519.28;;;12.12;81.31
43147;BME280;28752;48.266;7.402;2022-12-24T09:45:29;99514.34;;;12.17;82.48
43147;BME280;28752;48.266;7.402;2022-12-24T09:48:13;99500.09;;;12.18;83.49
43147;BME280;28752;48.266;7.402;2022-12-24T09:50:45;99506.50;;;12.33;82.44
43147;BME280;28752;48.266;7.402;2022-12-24T09:53:18;99519.16;;;12.39;82.29
43147;BME280;28752;48.266;7.402;2022-12-24T09:55:48;99511.03;;;12.41;82.91
43147;BME280;28752;48.266;7.402;2022-12-24T09:58:21;99506.75;;;12.48;84.20
43147;BME280;28752;48.266;7.402;2022-12-24T10:00:50;99508.25;;;12.24;84.93
43147;BME280;28752;48.266;7.402;2022-12-24T10:03:16;99512.56;;;12.25;84.72
43147;BME280;28752;48.266;7.402;2022-12-24T10:17:09;99518.88;;;12.24;81.78
43147;BME280;28752;48.266;7.402;2022-12-24T10:22:40;99513.72;;;12.49;81.73
43147;BME280;28752;48.266;7.402;2022-12-24T10:27:38;99506.94;;;12.81;82.98
43147;BME280;28752;48.266;7.402;2022-12-24T10:30:20;99507.94;;;12.80;83.96
43147;BME280;28752;48.266;7.402;2022-12-24T10:32:50;99526.91;;;12.93;84.29
43147;BME280;28752;48.266;7.402;2022-12-24T10:37:46;99524.25;;;12.93;83.88
43147;BME280;28752;48.266;7.402;2022-12-24T10:40:18;99525.91;;;12.86;84.07
43147;BME280;28752;48.266;7.402;2022-12-24T10:42:44;99519.41;;;12.80;84.49
43147;BME280;28752;48.266;7.402;2022-12-24T10:45:15;99514.81;;;12.65;84.30
43147;BME280;28752;48.266;7.402;2022-12-24T10:47:43;99516.53;;;12.74;83.54
43147;BME280;28752;48.266;7.402;2022-12-24T10:50:18;99522.19;;;12.71;82.41
43147;BME280;28752;48.266;7.402;2022-12-24T10:52:50;99513.31;;;12.62;84.06
43147;BME280;28752;48.266;7.402;2022-12-24T10:57:45;99517.09;;;12.86;83.42
43147;BME280;28752;48.266;7.402;2022-12-24T11:00:23;99520.75;;;12.85;83.71
43147;BME280;28752;48.266;7.402;2022-12-24T11:03:05;99517.31;;;13.01;82.00
43147;BME280;28752;48.266;7.402;2022-12-24T11:05:36;99512.88;;;13.09;82.07
43147;BME280;28752;48.266;7.402;2022-12-24T11:10:40;99503.78;;;13.20;82.43
43147;BME280;28752;48.266;7.402;2022-12-24T11:13:22;99509.50;;;13.33;81.86
43147;BME280;28752;48.266;7.402;2022-12-24T11:16:02;99521.50;;;13.38;82.30
43147;BME280;28752;48.266;7.402;2022-12-24T11:18:30;99524.66;;;13.41;81.38
43147;BME280;28752;48.266;7.402;2022-12-24T11:20:56;99519.56;;;13.22;82.24
43147;BME280;28752;48.266;7.402;2022-12-24T11:23:25;99522.06;;;13.23;81.95
43147;BME280;28752;48.266;7.402;2022-12-24T11:25:52;99503.06;;;13.10;81.83
43147;BME280;28752;48.266;7.402;2022-12-24T11:28:26;99521.34;;;13.13;82.99
43147;BME280;28752;48.266;7.402;2022-12-24T11:30:58;99514.91;;;13.15;83.09
43147;BME280;28752;48.266;7.402;2022-12-24T11:33:24;99508.22;;;13.03;83.33
43147;BME280;28752;48.266;7.402;2022-12-24T11:36:01;99521.69;;;13.10;83.02
43147;BME280;28752;48.266;7.402;2022-12-24T11:38:29;99513.19;;;13.06;82.42
43147;BME280;28752;48.266;7.402;2022-12-24T11:40:59;99509.00;;;12.95;83.27
43147;BME280;28752;48.266;7.402;2022-12-24T11:43:25;99516.41;;;12.84;83.84
43147;BME280;28752;48.266;7.402;2022-12-24T11:46:17;99502.81;;;12.87;84.06
43147;BME280;28752;48.266;7.402;2022-12-24T11:48:43;99487.81;;;12.77;84.81
43147;BME280;28752;48.266;7.402;2022-12-24T11:51:21;99496.69;;;12.94;84.42
43147;BME280;28752;48.266;7.402;2022-12-24T11:53:59;99496.28;;;13.07;83.69
43147;BME280;28752;48.266;7.402;2022-12-24T11:56:27;99494.78;;;13.13;84.17
43147;BME280;28752;48.266;7.402;2022-12-24T11:59:03;99494.66;;;13.23;83.75
43147;BME280;28752;48.266;7.402;2022-12-24T12:01:38;99493.63;;;13.15;84.17
43147;BME280;28752;48.266;7.402;2022-12-24T12:04:12;99503.47;;;13.23;83.99
43147;BME280;28752;48.266;7.402;2022-12-24T12:06:44;99503.94;;;13.19;83.80
43147;BME280;28752;48.266;7.402;2022-12-24T12:09:19;99498.78;;;13.17;83.88
43147;BME280;28752;48.266;7.402;2022-12-24T12:11:51;99496.94;;;13.18;83.91
43147;BME280;28752;48.266;7.402;2022-12-24T12:14:21;99493.94;;;13.12;83.53
43147;BME280;28752;48.266;7.402;2022-12-24T13:21:28;99466.25;;;13.31;80.40
43147;BME280;28752;48.266;7.402;2022-12-24T13:24:14;99473.47;;;13.47;80.16
43147;BME280;28752;48.266;7.402;2022-12-24T13:26:41;99466.63;;;13.45;77.77
43147;BME280;28752;48.266;7.402;2022-12-24T13:34:52;99469.78;;;13.40;77.40
43147;BME280;28752;48.266;7.402;2022-12-24T13:37:31;99466.97;;;13.33;76.76
43147;BME280;28752;48.266;7.402;2022-12-24T13:50:39;99465.56;;;13.21;78.84
43147;BME280;28752;48.266;7.402;2022-12-24T13:53:16;99475.69;;;13.18;79.69
43147;BME280;28752;48.266;7.402;2022-12-24T13:56:07;99473.84;;;13.10;80.28
43147;BME280;28752;48.266;7.402;2022-12-24T13:58:37;99488.41;;;12.97;81.31
43147;BME280;28752;48.266;7.402;2022-12-24T14:01:08;99495.56;;;12.97;81.41
43147;BME280;28752;48.266;7.402;2022-12-24T14:06:39;99501.34;;;12.92;81.43
43147;BME280;28752;48.266;7.402;2022-12-24T14:09:16;99486.53;;;12.82;81.47
43147;BME280;28752;48.266;7.402;2022-12-24T14:14:32;99484.09;;;12.62;83.56
43147;BME280;28752;48.266;7.402;2022-12-24T14:17:00;99473.88;;;12.49;83.98
43147;BME280;28752;48.266;7.402;2022-12-24T14:19:40;99476.22;;;12.52;84.93
43147;BME280;28752;48.266;7.402;2022-12-24T14:22:37;99472.47;;;12.37;85.04
43147;BME280;28752;48.266;7.402;2022-12-24T14:25:18;99464.84;;;12.34;85.23
43147;BME280;28752;48.266;7.402;2022-12-24T14:27:51;99474.47;;;12.35;84.92
43147;BME280;28752;48.266;7.402;2022-12-24T14:30:20;99473.47;;;12.36;85.22
43147;BME280;28752;48.266;7.402;2022-12-24T14:32:48;99472.38;;;12.20;84.06
43147;BME280;28752;48.266;7.402;2022-12-24T14:40:34;99452.63;;;12.15;83.46
43147;BME280;28752;48.266;7.402;2022-12-24T14:45:52;99471.34;;;12.13;84.04
43147;BME280;28752;48.266;7.402;2022-12-24T14:48:38;99469.59;;;12.04;84.88
43147;BME280;28752;48.266;7.402;2022-12-24T14:51:32;99472.94;;;12.06;84.46
43147;BME280;28752;48.266;7.402;2022-12-24T14:56:44;99478.72;;;12.01;84.86
43147;BME280;28752;48.266;7.402;2022-12-24T14:59:17;99481.13;;;11.95;85.19
43147;BME280;28752;48.266;7.402;2022-12-24T15:01:43;99488.03;;;11.87;86.12
43147;BME280;28752;48.266;7.402;2022-12-24T15:06:44;99488.19;;;11.86;86.41
43147;BME280;28752;48.266;7.402;2022-12-24T15:11:44;99506.06;;;11.84;86.85
43147;BME280;28752;48.266;7.402;2022-12-24T15:14:11;99512.44;;;11.73;87.56
43147;BME280;28752;48.266;7.402;2022-12-24T15:16:37;99512.28;;;11.74;87.80
43147;BME280;28752;48.266;7.402;2022-12-24T15:19:06;99515.22;;;11.71;88.22
43147;BME280;28752;48.266;7.402;2022-12-24T15:21:38;99503.41;;;11.66;88.30
43147;BME280;28752;48.266;7.402;2022-12-24T15:24:29;99512.88;;;11.68;88.28
43147;BME280;28752;48.266;7.402;2022-12-24T15:26:57;99505.31;;;11.55;88.89
43147;BME280;28752;48.266;7.402;2022-12-24T15:29:29;99518.03;;;11.70;88.21
43147;BME280;28752;48.266;7.402;2022-12-24T15:32:00;99523.78;;;11.65;87.91